sensor_id;sensor_type;location;lat;lon;timestamp;pressure;altitude;pressure_sealevel;temperature;humidity
21361;BME280;10839;43.206;23.550;2023-02-18T00:00:14;97771.38;;;8.19;52.18
21361;BME280;10839;43.206;23.550;2023-02-18T00:02:43;97768.53;;;8.20;51.96
21361;BME280;10839;43.206;23.550;2023-02-18T00:05:09;97775.34;;;7.99;52.70
21361;BME280;10839;43.206;23.550;2023-02-18T00:07:37;97762.69;;;8.17;51.91
21361;BME280;10839;43.206;23.550;2023-02-18T00:10:04;97764.66;;;7.99;52.46
21361;BME280;10839;43.206;23.550;2023-02-18T00:12:30;97769.78;;;7.76;53.06
21361;BME280;10839;43.206;23.550;2023-02-18T00:14:57;97767.63;;;7.79;53.63
21361;BME280;10839;43.206;23.550;2023-02-18T00:17:22;97759.56;;;7.79;53.43
21361;BME280;10839;43.206;23.550;2023-02-18T00:19:48;97774.94;;;7.69;53.80
21361;BME280;10839;43.206;23.550;2023-02-18T00:22:14;97771.56;;;7.59;53.77
21361;BME280;10839;43.206;23.550;2023-02-18T00:24:40;97777.31;;;7.80;53.52
21361;BME280;10839;43.206;23.550;2023-02-18T00:27:06;97776.69;;;7.87;53.38
21361;BME280;10839;43.206;23.550;2023-02-18T00:29:32;97780.09;;;8.05;52.66
21361;BME280;10839;43.206;23.550;2023-02-18T00:31:58;97779.41;;;8.03;52.58
21361;BME280;10839;43.206;23.550;2023-02-18T00:34:24;97766.69;;;8.13;52.34
21361;BME280;10839;43.206;23.550;2023-02-18T00:36:49;97766.38;;;8.16;52.18
21361;BME280;10839;43.206;23.550;2023-02-18T00:39:15;97762.38;;;8.20;51.88
21361;BME280;10839;43.206;23.550;2023-02-18T00:41:43;97757.34;;;8.17;52.22
21361;BME280;10839;43.206;23.550;2023-02-18T00:44:10;97757.72;;;8.46;51.36
21361;BME280;10839;43.206;23.550;2023-02-18T00:46:36;97762.41;;;8.52;51.13
21361;BME280;10839;43.206;23.550;2023-02-18T00:49:03;97749.34;;;8.25;52.09
21361;BME280;10839;43.206;23.550;2023-02-18T00:51:30;97740.94;;;8.52;51.39
21361;BME280;10839;43.206;23.550;2023-02-18T00:53:56;97724.19;;;8.74;50.43
21361;BME280;10839;43.206;23.550;2023-02-18T00:56:23;97727.88;;;8.73;50.11
21361;BME280;10839;43.206;23.550;2023-02-18T00:58:49;97731.56;;;8.72;50.57
21361;BME280;10839;43.206;23.550;2023-02-18T01:01:15;97731.22;;;8.83;50.70
21361;BME280;10839;43.206;23.550;2023-02-18T01:03:42;97725.50;;;8.86;50.50
21361;BME280;10839;43.206;23.550;2023-02-18T01:06:08;97726.72;;;8.59;50.92
21361;BME280;10839;43.206;23.550;2023-02-18T01:08:36;97724.47;;;8.95;50.00
21361;BME280;10839;43.206;23.550;2023-02-18T01:11:03;97722.50;;;8.89;50.48
21361;BME280;10839;43.206;23.550;2023-02-18T01:13:30;97726.03;;;8.65;50.75
21361;BME280;10839;43.206;23.550;2023-02-18T01:15:56;97730.91;;;8.62;51.30
21361;BME280;10839;43.206;23.550;2023-02-18T01:18:23;97731.22;;;8.83;51.02
21361;BME280;10839;43.206;23.550;2023-02-18T01:20:50;97729.56;;;8.74;51.04
21361;BME280;10839;43.206;23.550;2023-02-18T01:23:16;97724.88;;;8.68;51.11
21361;BME280;10839;43.206;23.550;2023-02-18T01:25:42;97722.16;;;8.92;50.78
21361;BME280;10839;43.206;23.550;2023-02-18T01:28:09;97701.16;;;9.12;50.16
21361;BME280;10839;43.206;23.550;2023-02-18T01:30:35;97710.53;;;9.07;50.55
21361;BME280;10839;43.206;23.550;2023-02-18T01:33:04;97711.25;;;9.01;50.78
21361;BME280;10839;43.206;23.550;2023-02-18T01:35:30;97714.19;;;9.23;50.38
21361;BME280;10839;43.206;23.550;2023-02-18T01:37:56;97716.06;;;9.14;50.04
21361;BME280;10839;43.206;23.550;2023-02-18T01:40:25;97719.97;;;8.87;50.92
21361;BME280;10839;43.206;23.550;2023-02-18T01:42:52;97709.06;;;8.89;51.07
21361;BME280;10839;43.206;23.550;2023-02-18T01:48:26;97697.00;;;8.77;51.55
21361;BME280;10839;43.206;23.550;2023-02-18T01:51:13;97689.31;;;8.66;51.87
21361;BME280;10839;43.206;23.550;2023-02-18T01:56:12;97685.56;;;8.99;50.99
21361;BME280;10839;43.206;23.550;2023-02-18T01:58:40;97681.53;;;9.03;51.11
21361;BME280;10839;43.206;23.550;2023-02-18T02:01:07;97683.72;;;8.99;50.66
21361;BME280;10839;43.206;23.550;2023-02-18T02:03:34;97685.38;;;9.00;51.35
21361;BME280;10839;43.206;23.550;2023-02-18T02:06:00;97683.75;;;8.91;51.35
21361;BME280;10839;43.206;23.550;2023-02-18T02:08:27;97688.19;;;9.15;51.11
21361;BME280;10839;43.206;23.550;2023-02-18T02:14:10;97687.59;;;8.89;50.91
21361;BME280;10839;43.206;23.550;2023-02-18T02:19:42;97677.13;;;9.10;50.03
21361;BME280;10839;43.206;23.550;2023-02-18T02:34:33;97681.72;;;8.93;51.53
21361;BME280;10839;43.206;23.550;2023-02-18T02:37:21;97674.88;;;9.38;50.05
21361;BME280;10839;43.206;23.550;2023-02-18T02:43:08;97666.63;;;9.39;50.04
21361;BME280;10839;43.206;23.550;2023-02-18T02:45:58;97677.38;;;9.39;49.79
21361;BME280;10839;43.206;23.550;2023-02-18T02:48:46;97670.38;;;9.22;49.74
21361;BME280;10839;43.206;23.550;2023-02-18T02:54:12;97674.44;;;9.18;49.97
21361;BME280;10839;43.206;23.550;2023-02-18T02:56:38;97689.25;;;9.06;50.41
21361;BME280;10839;43.206;23.550;2023-02-18T02:59:09;97680.81;;;9.17;50.62
21361;BME280;10839;43.206;23.550;2023-02-18T03:02:23;97684.00;;;9.21;50.51
21361;BME280;10839;43.206;23.550;2023-02-18T03:10:45;97698.97;;;9.07;50.65
21361;BME280;10839;43.206;23.550;2023-02-18T03:18:42;97679.13;;;9.85;48.66
21361;BME280;10839;43.206;23.550;2023-02-18T03:24:37;97677.00;;;10.03;49.08
21361;BME280;10839;43.206;23.550;2023-02-18T03:27:13;97694.09;;;9.88;48.73
21361;BME280;10839;43.206;23.550;2023-02-18T03:29:44;97677.22;;;9.71;49.00
21361;BME280;10839;43.206;23.550;2023-02-18T03:32:13;97671.13;;;9.77;48.71
21361;BME280;10839;43.206;23.550;2023-02-18T03:34:43;97685.28;;;9.63;49.16
21361;BME280;10839;43.206;23.550;2023-02-18T03:37:11;97687.81;;;9.34;49.95
21361;BME280;10839;43.206;23.550;2023-02-18T03:39:40;97681.09;;;9.38;50.12
21361;BME280;10839;43.206;23.550;2023-02-18T03:42:09;97668.34;;;9.32;50.24
21361;BME280;10839;43.206;23.550;2023-02-18T03:44:35;97671.53;;;8.81;51.40
21361;BME280;10839;43.206;23.550;2023-02-18T03:47:01;97655.72;;;8.94;51.92
21361;BME280;10839;43.206;23.550;2023-02-18T03:49:27;97651.66;;;9.06;51.36
21361;BME280;10839;43.206;23.550;2023-02-18T03:51:53;97648.00;;;8.99;51.76
21361;BME280;10839;43.206;23.550;2023-02-18T03:54:19;97643.03;;;8.80;52.71
21361;BME280;10839;43.206;23.550;2023-02-18T03:56:45;97626.28;;;8.62;53.28
21361;BME280;10839;43.206;23.550;2023-02-18T03:59:11;97628.19;;;9.00;52.18
21361;BME280;10839;43.206;23.550;2023-02-18T04:01:38;97629.03;;;9.00;52.07
21361;BME280;10839;43.206;23.550;2023-02-18T04:04:04;97636.69;;;8.65;52.65
21361;BME280;10839;43.206;23.550;2023-02-18T04:06:30;97649.44;;;8.39;53.87
21361;BME280;10839;43.206;23.550;2023-02-18T04:08:56;97652.78;;;8.09;54.68
21361;BME280;10839;43.206;23.550;2023-02-18T04:11:22;97660.81;;;8.01;55.45
21361;BME280;10839;43.206;23.550;2023-02-18T04:13:48;97653.13;;;8.22;55.03
21361;BME280;10839;43.206;23.550;2023-02-18T04:16:14;97652.13;;;8.63;53.47
21361;BME280;10839;43.206;23.550;2023-02-18T04:18:39;97651.56;;;8.75;52.94
21361;BME280;10839;43.206;23.550;2023-02-18T04:21:05;97637.88;;;9.09;52.49
21361;BME280;10839;43.206;23.550;2023-02-18T04:23:31;97643.53;;;9.83;51.48
21361;BME280;10839;43.206;23.550;2023-02-18T04:25:57;97654.78;;;9.87;50.45
21361;BME280;10839;43.206;23.550;2023-02-18T04:28:23;97654.91;;;9.32;51.47
21361;BME280;10839;43.206;23.550;2023-02-18T04:30:49;97652.63;;;9.21;51.94
21361;BME280;10839;43.206;23.550;2023-02-18T04:33:15;97649.91;;;9.29;51.34
21361;BME280;10839;43.206;23.550;2023-02-18T04:35:41;97651.63;;;9.14;52.02
21361;BME280;10839;43.206;23.550;2023-02-18T04:38:07;97638.44;;;9.35;51.07
21361;BME280;10839;43.206;23.550;2023-02-18T04:40:34;97636.56;;;9.74;50.29
21361;BME280;10839;43.206;23.550;2023-02-18T04:43:00;97634.97;;;9.57;50.68
21361;BME280;10839;43.206;23.550;2023-02-18T04:45:27;97625.41;;;9.24;51.21
21361;BME280;10839;43.206;23.550;2023-02-18T04:47:54;97640.50;;;9.33;51.62
21361;BME280;10839;43.206;23.550;2023-02-18T04:50:20;97648.91;;;9.22;51.48
21361;BME280;10839;43.206;23.550;2023-02-18T04:52:48;97641.69;;;8.76;52.48
21361;BME280;10839;43.206;23.550;2023-02-18T04:55:13;97647.19;;;8.82;53.15
21361;BME280;10839;43.206;23.550;2023-02-18T04:57:39;97640.13;;;8.97;52.76
21361;BME280;10839;43.206;23.550;2023-02-18T05:00:07;97643.03;;;8.80;52.86
21361;BME280;10839;43.206;23.550;2023-02-18T05:02:33;97650.00;;;8.97;52.82
21361;BME280;10839;43.206;23.550;2023-02-18T05:04:59;97649.34;;;9.03;52.75
21361;BME280;10839;43.206;23.550;2023-02-18T05:07:25;97642.91;;;9.12;52.31
21361;BME280;10839;43.206;23.550;2023-02-18T05:09:51;97646.97;;;9.08;52.37
21361;BME280;10839;43.206;23.550;2023-02-18T05:12:17;97640.38;;;9.19;52.15
21361;BME280;10839;43.206;23.550;2023-02-18T05:14:43;97649.41;;;9.26;52.25
21361;BME280;10839;43.206;23.550;2023-02-18T05:17:08;97636.50;;;9.21;52.37
21361;BME280;10839;43.206;23.550;2023-02-18T05:19:34;97641.88;;;9.21;52.69
21361;BME280;10839;43.206;23.550;2023-02-18T05:22:00;97629.94;;;9.24;52.84
21361;BME280;10839;43.206;23.550;2023-02-18T05:24:26;97623.78;;;9.46;52.22
21361;BME280;10839;43.206;23.550;2023-02-18T05:26:52;97630.50;;;9.72;52.71
21361;BME280;10839;43.206;23.550;2023-02-18T05:29:17;97622.88;;;9.61;51.75
21361;BME280;10839;43.206;23.550;2023-02-18T05:31:43;97622.16;;;9.67;51.63
21361;BME280;10839;43.206;23.550;2023-02-18T05:34:09;97628.13;;;9.47;51.19
21361;BME280;10839;43.206;23.550;2023-02-18T05:36:35;97631.50;;;9.18;52.22
21361;BME280;10839;43.206;23.550;2023-02-18T05:39:00;97619.78;;;9.11;52.76
21361;BME280;10839;43.206;23.550;2023-02-18T05:41:26;97627.47;;;9.14;52.19
21361;BME280;10839;43.206;23.550;2023-02-18T05:43:52;97625.53;;;8.92;53.05
21361;BME280;10839;43.206;23.550;2023-02-18T05:46:36;97606.03;;;9.06;52.60
21361;BME280;10839;43.206;23.550;2023-02-18T05:49:02;97626.69;;;8.97;53.01
21361;BME280;10839;43.206;23.550;2023-02-18T05:51:28;97630.91;;;8.92;53.42
21361;BME280;10839;43.206;23.550;2023-02-18T05:53:53;97622.84;;;8.92;53.19
21361;BME280;10839;43.206;23.550;2023-02-18T05:56:20;97641.91;;;9.05;53.02
21361;BME280;10839;43.206;23.550;2023-02-18T05:58:46;97641.34;;;8.79;53.78
21361;BME280;10839;43.206;23.550;2023-02-18T06:01:11;97647.16;;;8.98;53.61
21361;BME280;10839;43.206;23.550;2023-02-18T06:03:37;97638.59;;;9.03;53.52
21361;BME280;10839;43.206;23.550;2023-02-18T06:06:03;97643.00;;;8.88;53.47
21361;BME280;10839;43.206;23.550;2023-02-18T06:08:29;97634.44;;;8.92;53.50
21361;BME280;10839;43.206;23.550;2023-02-18T06:10:55;97640.19;;;9.20;52.93
21361;BME280;10839;43.206;23.550;2023-02-18T06:13:21;97649.44;;;9.18;52.79
21361;BME280;10839;43.206;23.550;2023-02-18T06:15:50;97653.25;;;9.31;52.36
21361;BME280;10839;43.206;23.550;2023-02-18T06:18:16;97636.91;;;9.71;51.43
21361;BME280;10839;43.206;23.550;2023-02-18T06:20:43;97643.81;;;9.96;50.73
21361;BME280;10839;43.206;23.550;2023-02-18T06:23:09;97636.84;;;10.02;50.53
21361;BME280;10839;43.206;23.550;2023-02-18T06:25:34;97631.91;;;10.13;50.24
21361;BME280;10839;43.206;23.550;2023-02-18T06:28:00;97627.63;;;10.42;49.29
21361;BME280;10839;43.206;23.550;2023-02-18T06:30:26;97617.50;;;10.81;47.76
21361;BME280;10839;43.206;23.550;2023-02-18T06:32:51;97614.91;;;11.02;47.77
21361;BME280;10839;43.206;23.550;2023-02-18T06:35:17;97604.03;;;11.60;47.48
21361;BME280;10839;43.206;23.550;2023-02-18T06:37:43;97613.72;;;11.69;46.80
21361;BME280;10839;43.206;23.550;2023-02-18T06:40:10;97607.56;;;11.75;46.25
21361;BME280;10839;43.206;23.550;2023-02-18T06:42:36;97597.91;;;12.50;44.83
21361;BME280;10839;43.206;23.550;2023-02-18T06:45:02;97600.03;;;12.61;44.37
21361;BME280;10839;43.206;23.550;2023-02-18T06:47:32;97599.78;;;12.29;44.69
21361;BME280;10839;43.206;23.550;2023-02-18T06:49:58;97593.06;;;12.73;44.66
21361;BME280;10839;43.206;23.550;2023-02-18T06:52:24;97591.22;;;13.49;44.32
21361;BME280;10839;43.206;23.550;2023-02-18T06:54:50;97591.78;;;13.38;43.63
21361;BME280;10839;43.206;23.550;2023-02-18T06:57:16;97590.00;;;12.49;45.25
21361;BME280;10839;43.206;23.550;2023-02-18T06:59:42;97588.41;;;12.61;45.04
21361;BME280;10839;43.206;23.550;2023-02-18T07:02:11;97604.94;;;12.51;45.24
21361;BME280;10839;43.206;23.550;2023-02-18T07:04:37;97589.59;;;12.03;45.50
21361;BME280;10839;43.206;23.550;2023-02-18T07:07:03;97590.56;;;12.44;44.61
21361;BME280;10839;43.206;23.550;2023-02-18T07:09:28;97599.28;;;12.67;44.44
21361;BME280;10839;43.206;23.550;2023-02-18T07:11:54;97594.13;;;12.72;44.04
21361;BME280;10839;43.206;23.550;2023-02-18T07:14:20;97598.13;;;13.11;43.27
21361;BME280;10839;43.206;23.550;2023-02-18T07:16:47;97601.84;;;13.50;43.39
21361;BME280;10839;43.206;23.550;2023-02-18T07:19:13;97588.28;;;14.10;43.06
21361;BME280;10839;43.206;23.550;2023-02-18T07:21:39;97583.28;;;14.79;42.11
21361;BME280;10839;43.206;23.550;2023-02-18T07:24:05;97595.97;;;14.98;41.48
21361;BME280;10839;43.206;23.550;2023-02-18T07:26:31;97595.38;;;14.83;41.27
21361;BME280;10839;43.206;23.550;2023-02-18T07:28:57;97606.63;;;14.61;40.39
21361;BME280;10839;43.206;23.550;2023-02-18T07:31:23;97596.13;;;16.42;37.78
21361;BME280;10839;43.206;23.550;2023-02-18T07:33:48;97606.47;;;18.28;34.59
21361;BME280;10839;43.206;23.550;2023-02-18T07:36:14;97602.06;;;18.45;33.78
21361;BME280;10839;43.206;23.550;2023-02-18T07:38:40;97591.03;;;18.40;33.99
21361;BME280;10839;43.206;23.550;2023-02-18T07:41:06;97604.69;;;18.33;34.00
21361;BME280;10839;43.206;23.550;2023-02-18T07:43:31;97607.81;;;19.01;33.24
21361;BME280;10839;43.206;23.550;2023-02-18T07:45:57;97603.16;;;18.78;32.90
21361;BME280;10839;43.206;23.550;2023-02-18T07:48:23;97606.00;;;17.71;34.34
21361;BME280;10839;43.206;23.550;2023-02-18T07:50:49;97622.09;;;17.12;34.95
21361;BME280;10839;43.206;23.550;2023-02-18T07:53:15;97612.19;;;16.50;35.84
21361;BME280;10839;43.206;23.550;2023-02-18T07:55:41;97628.34;;;16.08;36.50
21361;BME280;10839;43.206;23.550;2023-02-18T07:58:23;97614.41;;;15.60;37.95
21361;BME280;10839;43.206;23.550;2023-02-18T08:00:49;97615.66;;;16.33;36.77
21361;BME280;10839;43.206;23.550;2023-02-18T08:03:16;97632.81;;;15.89;37.18
21361;BME280;10839;43.206;23.550;2023-02-18T08:05:43;97623.97;;;15.63;37.55
21361;BME280;10839;43.206;23.550;2023-02-18T08:08:13;97625.91;;;15.43;38.10
21361;BME280;10839;43.206;23.550;2023-02-18T08:10:40;97621.34;;;16.56;36.47
21361;BME280;10839;43.206;23.550;2023-02-18T08:13:06;97638.81;;;17.16;35.44
21361;BME280;10839;43.206;23.550;2023-02-18T08:15:32;97643.84;;;17.12;35.06
21361;BME280;10839;43.206;23.550;2023-02-18T08:17:58;97636.88;;;16.42;35.99
21361;BME280;10839;43.206;23.550;2023-02-18T08:20:25;97638.19;;;17.38;34.32
21361;BME280;10839;43.206;23.550;2023-02-18T08:22:51;97644.16;;;17.04;34.70
21361;BME280;10839;43.206;23.550;2023-02-18T08:25:17;97645.72;;;17.36;34.17
21361;BME280;10839;43.206;23.550;2023-02-18T08:27:42;97643.09;;;17.84;33.84
21361;BME280;10839;43.206;23.550;2023-02-18T08:30:08;97642.94;;;18.27;33.52
21361;BME280;10839;43.206;23.550;2023-02-18T08:32:34;97639.75;;;18.48;32.83
21361;BME280;10839;43.206;23.550;2023-02-18T08:35:02;97656.19;;;17.75;33.41
21361;BME280;10839;43.206;23.550;2023-02-18T08:37:28;97655.28;;;17.81;34.05
21361;BME280;10839;43.206;23.550;2023-02-18T08:39:54;97656.91;;;18.01;33.90
21361;BME280;10839;43.206;23.550;2023-02-18T08:42:20;97652.47;;;18.77;33.54
21361;BME280;10839;43.206;23.550;2023-02-18T08:44:46;97660.19;;;18.80;33.78
21361;BME280;10839;43.206;23.550;2023-02-18T08:47:12;97662.47;;;18.24;34.50
21361;BME280;10839;43.206;23.550;2023-02-18T08:49:38;97665.06;;;18.78;34.80
21361;BME280;10839;43.206;23.550;2023-02-18T08:52:04;97664.50;;;19.22;34.51
21361;BME280;10839;43.206;23.550;2023-02-18T08:54:30;97664.53;;;19.45;34.09
21361;BME280;10839;43.206;23.550;2023-02-18T08:56:56;97676.19;;;19.52;33.19
21361;BME280;10839;43.206;23.550;2023-02-18T08:59:25;97670.19;;;19.78;33.09
21361;BME280;10839;43.206;23.550;2023-02-18T09:01:51;97677.94;;;21.22;31.13
21361;BME280;10839;43.206;23.550;2023-02-18T09:04:17;97675.09;;;21.50;29.64
21361;BME280;10839;43.206;23.550;2023-02-18T09:06:48;97676.88;;;21.94;28.55
21361;BME280;10839;43.206;23.550;2023-02-18T09:09:16;97685.59;;;22.83;27.38
21361;BME280;10839;43.206;23.550;2023-02-18T09:11:42;97680.84;;;21.87;27.27
21361;BME280;10839;43.206;23.550;2023-02-18T09:14:08;97686.41;;;21.75;27.37
21361;BME280;10839;43.206;23.550;2023-02-18T09:16:34;97696.25;;;21.38;27.43
21361;BME280;10839;43.206;23.550;2023-02-18T09:19:00;97698.53;;;20.12;29.08
21361;BME280;10839;43.206;23.550;2023-02-18T09:21:26;97694.63;;;19.96;29.39
21361;BME280;10839;43.206;23.550;2023-02-18T09:23:52;97692.78;;;19.62;29.78
21361;BME280;10839;43.206;23.550;2023-02-18T09:26:19;97696.06;;;19.18;30.47
21361;BME280;10839;43.206;23.550;2023-02-18T09:28:48;97707.41;;;18.92;30.93
21361;BME280;10839;43.206;23.550;2023-02-18T09:31:18;97704.47;;;19.05;31.08
21361;BME280;10839;43.206;23.550;2023-02-18T09:33:50;97720.53;;;19.13;31.23
21361;BME280;10839;43.206;23.550;2023-02-18T09:36:17;97717.31;;;18.45;32.41
21361;BME280;10839;43.206;23.550;2023-02-18T09:38:43;97719.41;;;18.14;33.21
21361;BME280;10839;43.206;23.550;2023-02-18T09:41:42;97713.66;;;18.40;33.10
21361;BME280;10839;43.206;23.550;2023-02-18T09:44:15;97715.03;;;17.95;33.72
21361;BME280;10839;43.206;23.550;2023-02-18T09:49:19;97719.09;;;18.40;33.65
21361;BME280;10839;43.206;23.550;2023-02-18T09:51:46;97718.34;;;18.62;33.39
21361;BME280;10839;43.206;23.550;2023-02-18T09:54:17;97709.41;;;18.08;34.49
21361;BME280;10839;43.206;23.550;2023-02-18T09:56:44;97709.22;;;18.68;33.91
21361;BME280;10839;43.206;23.550;2023-02-18T09:59:15;97720.75;;;18.70;33.54
21361;BME280;10839;43.206;23.550;2023-02-18T10:01:42;97720.84;;;17.98;34.73
21361;BME280;10839;43.206;23.550;2023-02-18T10:04:19;97723.19;;;18.13;34.36
21361;BME280;10839;43.206;23.550;2023-02-18T10:06:50;97712.56;;;18.41;33.90
21361;BME280;10839;43.206;23.550;2023-02-18T10:09:30;97703.03;;;18.14;33.79
21361;BME280;10839;43.206;23.550;2023-02-18T10:12:14;97711.06;;;18.45;34.05
21361;BME280;10839;43.206;23.550;2023-02-18T10:14:42;97704.69;;;19.03;33.25
21361;BME280;10839;43.206;23.550;2023-02-18T10:17:14;97702.66;;;18.46;33.38
21361;BME280;10839;43.206;23.550;2023-02-18T10:19:42;97697.97;;;19.06;32.66
21361;BME280;10839;43.206;23.550;2023-02-18T10:22:11;97706.72;;;18.55;32.76
21361;BME280;10839;43.206;23.550;2023-02-18T10:24:41;97690.78;;;18.23;33.84
21361;BME280;10839;43.206;23.550;2023-02-18T10:27:09;97697.22;;;18.99;32.78
21361;BME280;10839;43.206;23.550;2023-02-18T10:29:41;97686.38;;;18.69;32.89
21361;BME280;10839;43.206;23.550;2023-02-18T10:32:18;97688.19;;;17.98;34.11
21361;BME280;10839;43.206;23.550;2023-02-18T10:46:17;97668.16;;;17.56;34.81
21361;BME280;10839;43.206;23.550;2023-02-18T10:51:46;97653.44;;;17.94;34.63
21361;BME280;10839;43.206;23.550;2023-02-18T10:54:13;97645.16;;;17.52;34.93
21361;BME280;10839;43.206;23.550;2023-02-18T10:56:41;97647.28;;;17.87;34.75
21361;BME280;10839;43.206;23.550;2023-02-18T10:59:12;97638.03;;;18.17;34.64
21361;BME280;10839;43.206;23.550;2023-02-18T11:01:40;97638.66;;;17.71;35.12
21361;BME280;10839;43.206;23.550;2023-02-18T11:04:18;97642.97;;;18.09;34.59
21361;BME280;10839;43.206;23.550;2023-02-18T11:06:47;97630.09;;;18.16;34.45
21361;BME280;10839;43.206;23.550;2023-02-18T11:09:41;97628.50;;;17.78;35.16
21361;BME280;10839;43.206;23.550;2023-02-18T11:14:48;97615.50;;;17.80;34.50
21361;BME280;10839;43.206;23.550;2023-02-18T11:17:25;97611.16;;;18.21;34.41
21361;BME280;10839;43.206;23.550;2023-02-18T11:19:54;97596.41;;;18.81;33.81
21361;BME280;10839;43.206;23.550;2023-02-18T11:22:32;97595.44;;;18.64;33.88
21361;BME280;10839;43.206;23.550;2023-02-18T11:25:01;97592.59;;;18.82;33.94
21361;BME280;10839;43.206;23.550;2023-02-18T11:27:41;97588.41;;;19.72;32.61
21361;BME280;10839;43.206;23.550;2023-02-18T11:30:32;97588.94;;;19.23;32.59
21361;BME280;10839;43.206;23.550;2023-02-18T11:33:08;97585.84;;;19.42;32.31
21361;BME280;10839;43.206;23.550;2023-02-18T11:35:34;97593.16;;;20.04;32.23
21361;BME280;10839;43.206;23.550;2023-02-18T11:38:03;97583.63;;;19.79;32.04
21361;BME280;10839;43.206;23.550;2023-02-18T11:40:41;97591.38;;;19.70;32.09
21361;BME280;10839;43.206;23.550;2023-02-18T11:43:15;97583.78;;;19.72;32.09
21361;BME280;10839;43.206;23.550;2023-02-18T11:45:43;97585.69;;;19.60;32.28
21361;BME280;10839;43.206;23.550;2023-02-18T11:50:37;97591.50;;;20.03;31.74
21361;BME280;10839;43.206;23.550;2023-02-18T11:55:54;97577.88;;;19.52;32.49
21361;BME280;10839;43.206;23.550;2023-02-18T11:58:21;97566.25;;;19.45;32.52
21361;BME280;10839;43.206;23.550;2023-02-18T12:00:49;97577.25;;;20.01;32.25
21361;BME280;10839;43.206;23.550;2023-02-18T12:06:03;97562.53;;;20.30;31.45
21361;BME280;10839;43.206;23.550;2023-02-18T12:08:51;97564.94;;;20.27;31.83
21361;BME280;10839;43.206;23.550;2023-02-18T12:11:30;97553.50;;;20.47;31.61
21361;BME280;10839;43.206;23.550;2023-02-18T12:13:59;97549.38;;;20.27;31.89
21361;BME280;10839;43.206;23.550;2023-02-18T12:16:46;97556.34;;;20.68;31.50
21361;BME280;10839;43.206;23.550;2023-02-18T12:22:25;97551.03;;;20.62;31.23
21361;BME280;10839;43.206;23.550;2023-02-18T12:27:51;97549.88;;;20.74;31.31
21361;BME280;10839;43.206;23.550;2023-02-18T12:38:38;97552.66;;;20.01;32.18
21361;BME280;10839;43.206;23.550;2023-02-18T12:44:11;97542.09;;;19.02;33.13
21361;BME280;10839;43.206;23.550;2023-02-18T12:50:49;97540.91;;;19.10;32.59
21361;BME280;10839;43.206;23.550;2023-02-18T12:59:07;97549.38;;;18.33;34.13
21361;BME280;10839;43.206;23.550;2023-02-18T13:05:03;97537.72;;;18.78;33.98
21361;BME280;10839;43.206;23.550;2023-02-18T13:08:41;97539.72;;;18.60;34.34
21361;BME280;10839;43.206;23.550;2023-02-18T13:13:31;97542.13;;;18.38;34.53
21361;BME280;10839;43.206;23.550;2023-02-18T13:16:08;97537.47;;;18.57;34.51
21361;BME280;10839;43.206;23.550;2023-02-18T13:18:38;97535.09;;;18.72;34.74
21361;BME280;10839;43.206;23.550;2023-02-18T13:21:11;97543.53;;;18.18;35.28
21361;BME280;10839;43.206;23.550;2023-02-18T13:24:02;97540.06;;;18.75;34.46
21361;BME280;10839;43.206;23.550;2023-02-18T13:26:31;97542.56;;;18.12;35.21
21361;BME280;10839;43.206;23.550;2023-02-18T13:36:57;97551.09;;;17.74;35.96
21361;BME280;10839;43.206;23.550;2023-02-18T13:39:26;97549.88;;;17.70;36.08
21361;BME280;10839;43.206;23.550;2023-02-18T13:48:00;97554.28;;;17.17;36.79
21361;BME280;10839;43.206;23.550;2023-02-18T13:50:29;97531.41;;;17.72;36.17
21361;BME280;10839;43.206;23.550;2023-02-18T13:53:14;97533.94;;;17.38;36.41
21361;BME280;10839;43.206;23.550;2023-02-18T13:55:59;97535.38;;;17.58;36.45
21361;BME280;10839;43.206;23.550;2023-02-18T13:58:31;97525.22;;;17.65;35.95
21361;BME280;10839;43.206;23.550;2023-02-18T14:01:13;97538.88;;;17.11;36.91
21361;BME280;10839;43.206;23.550;2023-02-18T14:06:21;97533.94;;;17.38;36.67
21361;BME280;10839;43.206;23.550;2023-02-18T14:08:48;97531.38;;;17.43;36.86
21361;BME280;10839;43.206;23.550;2023-02-18T14:13:47;97528.41;;;16.90;37.59
21361;BME280;10839;43.206;23.550;2023-02-18T14:16:14;97539.16;;;17.03;37.40
21361;BME280;10839;43.206;23.550;2023-02-18T14:23:40;97519.53;;;17.19;37.03
21361;BME280;10839;43.206;23.550;2023-02-18T14:31:01;97511.59;;;17.18;37.12
21361;BME280;10839;43.206;23.550;2023-02-18T14:33:31;97499.28;;;16.97;37.52
21361;BME280;10839;43.206;23.550;2023-02-18T14:44:24;97493.28;;;16.71;38.54
21361;BME280;10839;43.206;23.550;2023-02-18T14:47:19;97486.13;;;16.76;38.63
21361;BME280;10839;43.206;23.550;2023-02-18T14:49:55;97481.00;;;16.86;38.48
21361;BME280;10839;43.206;23.550;2023-02-18T14:52:56;97486.13;;;16.76;38.61
21361;BME280;10839;43.206;23.550;2023-02-18T14:55:27;97482.03;;;16.67;38.73
21361;BME280;10839;43.206;23.550;2023-02-18T14:58:01;97471.06;;;16.80;38.55
21361;BME280;10839;43.206;23.550;2023-02-18T15:00:29;97473.16;;;16.60;38.98
21361;BME280;10839;43.206;23.550;2023-02-18T15:02:59;97469.19;;;16.56;39.17
21361;BME280;10839;43.206;23.550;2023-02-18T15:05:30;97474.63;;;16.56;39.43
21361;BME280;10839;43.206;23.550;2023-02-18T15:10:45;97474.31;;;16.46;39.96
21361;BME280;10839;43.206;23.550;2023-02-18T15:15:48;97487.16;;;16.08;40.92
21361;BME280;10839;43.206;23.550;2023-02-18T15:21:02;97479.91;;;15.71;41.84
21361;BME280;10839;43.206;23.550;2023-02-18T15:23:30;97482.44;;;15.66;41.88
21361;BME280;10839;43.206;23.550;2023-02-18T15:25:57;97477.38;;;15.76;41.73
21361;BME280;10839;43.206;23.550;2023-02-18T15:28:29;97482.09;;;15.56;42.36
21361;BME280;10839;43.206;23.550;2023-02-18T15:30:57;97487.59;;;15.43;42.87
21361;BME280;10839;43.206;23.550;2023-02-18T15:33:24;97491.38;;;15.42;42.91
21361;BME280;10839;43.206;23.550;2023-02-18T15:35:50;97487.28;;;15.19;43.47